Time;durP1;ratioP1;P1;durP2;ratioP2;P2;SDS_P1;SDS_P2;PMS_P1;PMS_P2;Temp;Humidity;BMP_temperature;BMP_pressure;BME280_temperature;BME280_humidity;BME280_pressure;Samples;Min_cycle;Max_cycle;Signal;HPM_P1;HPM_P2
2023/10/30 00:00:48;;;;;;;18.67;13.97;;;15.00;99.90;;;;;;5085030;28;20262;-65
2023/10/30 00:03:16;;;;;;;20.77;12.47;;;15.00;99.90;;;;;;5077691;28;20212;-65
2023/10/30 00:05:43;;;;;;;21.60;14.33;;;15.10;99.90;;;;;;5083834;28;20526;-65
2023/10/30 00:08:10;;;;;;;21.63;13.43;;;15.10;99.90;;;;;;5080591;28;20206;-65
2023/10/30 00:10:37;;;;;;;20.30;12.93;;;15.10;99.90;;;;;;5086791;28;20201;-65
2023/10/30 00:13:04;;;;;;;22.27;13.33;;;15.20;99.90;;;;;;5082946;28;20604;-65
2023/10/30 00:15:31;;;;;;;20.20;13.93;;;15.20;99.90;;;;;;5065720;28;20212;-65
2023/10/30 00:17:58;;;;;;;16.67;12.73;;;15.20;99.90;;;;;;5082992;28;20239;-65
2023/10/30 00:20:26;;;;;;;23.63;13.37;;;15.20;99.90;;;;;;5072649;28;20592;-65
2023/10/30 00:22:53;;;;;;;21.97;13.17;;;15.20;99.90;;;;;;5080481;28;20240;-66
2023/10/30 00:25:21;;;;;;;18.63;12.47;;;15.20;99.90;;;;;;5083419;28;20537;-66
2023/10/30 00:27:48;;;;;;;19.93;12.53;;;15.20;99.90;;;;;;5081904;28;20200;-65
2023/10/30 00:30:15;;;;;;;18.70;13.20;;;15.20;99.90;;;;;;5059087;28;20630;-65
2023/10/30 00:32:42;;;;;;;23.10;13.07;;;15.30;99.90;;;;;;5069374;28;20244;-65
2023/10/30 00:35:09;;;;;;;22.50;12.93;;;15.20;99.90;;;;;;5076813;28;20202;-65
2023/10/30 00:37:36;;;;;;;20.07;13.37;;;15.30;99.90;;;;;;5069539;28;20205;-65
2023/10/30 00:40:05;;;;;;;20.53;12.93;;;15.20;99.90;;;;;;5076940;28;20193;-65
2023/10/30 00:42:32;;;;;;;23.03;13.43;;;15.30;99.90;;;;;;5076134;28;20269;-65
2023/10/30 00:44:59;;;;;;;19.20;12.77;;;15.30;99.90;;;;;;5083666;28;20510;-65
2023/10/30 00:47:26;;;;;;;19.90;14.30;;;15.30;99.90;;;;;;5076902;28;20205;-65
2023/10/30 00:49:53;;;;;;;20.80;13.20;;;15.30;99.90;;;;;;5077661;28;20240;-65
2023/10/30 00:52:20;;;;;;;19.57;13.50;;;15.30;99.90;;;;;;5070257;28;20606;-65
2023/10/30 00:54:47;;;;;;;20.63;13.70;;;15.30;99.90;;;;;;5083679;28;20193;-65
2023/10/30 00:57:16;;;;;;;19.93;14.07;;;15.20;99.90;;;;;;5060540;28;20194;-64
2023/10/30 00:59:43;;;;;;;23.37;14.23;;;15.20;99.90;;;;;;5072116;28;20220;-65
2023/10/30 01:02:10;;;;;;;21.13;14.80;;;15.20;99.90;;;;;;5072331;28;20201;-65
2023/10/30 01:04:37;;;;;;;20.90;13.77;;;15.20;99.90;;;;;;5081386;28;20209;-65
2023/10/30 01:07:04;;;;;;;18.80;14.03;;;15.20;99.90;;;;;;5081486;28;20209;-65
2023/10/30 01:09:31;;;;;;;22.63;14.47;;;15.20;99.90;;;;;;5073013;28;20214;-65
2023/10/30 01:11:58;;;;;;;23.23;14.13;;;15.20;99.90;;;;;;5084332;28;20236;-65
2023/10/30 01:14:25;;;;;;;20.57;14.03;;;15.20;99.90;;;;;;5073280;28;20627;-65
2023/10/30 01:16:52;;;;;;;17.87;13.37;;;15.10;99.90;;;;;;5083853;28;20580;-65
2023/10/30 01:19:20;;;;;;;20.80;14.93;;;15.20;99.90;;;;;;5082986;28;20286;-65
2023/10/30 01:21:47;;;;;;;24.40;14.20;;;15.20;99.90;;;;;;5082593;28;20192;-65
2023/10/30 01:24:14;;;;;;;16.23;14.00;;;15.20;99.90;;;;;;5079999;28;20204;-65
2023/10/30 01:26:41;;;;;;;24.47;16.07;;;15.20;99.90;;;;;;5090549;28;20283;-65
2023/10/30 01:29:08;;;;;;;22.77;15.37;;;15.20;99.90;;;;;;5088957;28;20193;-65
2023/10/30 01:31:35;;;;;;;21.87;15.47;;;15.20;99.90;;;;;;5077736;28;20251;-65
2023/10/30 01:34:02;;;;;;;19.97;15.13;;;15.20;99.90;;;;;;5081452;28;20213;-65
2023/10/30 01:36:30;;;;;;;20.23;15.20;;;15.20;99.90;;;;;;5081667;28;20626;-65
2023/10/30 01:38:58;;;;;;;26.17;15.23;;;15.20;99.90;;;;;;5085409;28;20535;-66
2023/10/30 01:41:25;;;;;;;21.27;15.80;;;15.30;99.90;;;;;;5079066;28;20189;-66
2023/10/30 01:43:52;;;;;;;21.83;15.43;;;15.30;99.90;;;;;;5081632;28;20286;-66
2023/10/30 01:46:19;;;;;;;20.33;14.90;;;15.30;99.90;;;;;;5088641;28;20681;-66
2023/10/30 01:48:47;;;;;;;22.73;15.67;;;15.40;99.90;;;;;;5072134;28;20198;-66
2023/10/30 01:51:20;;;;;;;18.53;13.77;;;15.40;99.90;;;;;;5073936;28;20201;-66
2023/10/30 01:53:48;;;;;;;25.33;16.63;;;15.40;99.90;;;;;;5065774;28;20214;-65
2023/10/30 01:56:16;;;;;;;24.60;17.27;;;15.40;99.90;;;;;;5072789;28;20197;-65
2023/10/30 01:58:44;;;;;;;23.77;17.13;;;15.40;99.90;;;;;;5071575;28;20229;-65
2023/10/30 02:01:12;;;;;;;24.57;17.60;;;15.40;99.90;;;;;;5074976;28;20296;-65
2023/10/30 02:03:39;;;;;;;27.40;16.57;;;15.40;99.90;;;;;;5072949;28;20253;-65
2023/10/30 02:06:07;;;;;;;26.93;17.40;;;15.40;99.90;;;;;;5087135;28;20265;-65
2023/10/30 02:08:35;;;;;;;21.30;16.93;;;15.40;99.90;;;;;;5086673;28;20571;-65
2023/10/30 02:11:02;;;;;;;20.00;16.87;;;15.40;99.90;;;;;;5089390;28;20691;-65
2023/10/30 02:13:29;;;;;;;27.63;18.27;;;15.50;99.90;;;;;;5075029;28;20276;-65
2023/10/30 02:15:57;;;;;;;24.30;18.23;;;15.50;99.90;;;;;;5085919;28;20201;-65
2023/10/30 02:18:24;;;;;;;27.40;16.83;;;15.50;99.90;;;;;;5081321;28;20255;-65
2023/10/30 02:20:52;;;;;;;24.73;17.77;;;15.50;99.90;;;;;;5075953;28;20269;-65
2023/10/30 02:23:19;;;;;;;27.10;18.03;;;15.50;99.90;;;;;;5080152;28;20332;-65
2023/10/30 02:25:46;;;;;;;25.83;17.67;;;15.50;99.90;;;;;;5073108;28;20220;-65
2023/10/30 02:28:13;;;;;;;28.43;17.33;;;15.50;99.90;;;;;;5085090;28;20561;-65
2023/10/30 02:30:40;;;;;;;24.53;17.90;;;15.40;99.90;;;;;;5085181;28;20207;-65
2023/10/30 02:33:08;;;;;;;27.30;18.30;;;15.40;99.90;;;;;;5081850;28;20686;-65
2023/10/30 02:35:35;;;;;;;31.53;18.10;;;15.40;99.90;;;;;;5082228;28;20276;-65
2023/10/30 02:38:02;;;;;;;24.23;18.27;;;15.30;99.90;;;;;;5079480;28;20252;-65
2023/10/30 02:40:29;;;;;;;24.97;17.67;;;15.30;99.90;;;;;;5079698;28;20190;-65
2023/10/30 02:42:55;;;;;;;24.50;18.23;;;15.40;99.90;;;;;;5087841;28;20264;-65
2023/10/30 02:45:23;;;;;;;31.47;17.87;;;15.40;99.90;;;;;;5084837;28;20190;-65
2023/10/30 02:47:50;;;;;;;28.37;18.57;;;15.40;99.90;;;;;;5080510;28;20206;-65
2023/10/30 02:50:17;;;;;;;23.17;17.97;;;15.50;99.90;;;;;;5076463;28;20262;-65
2023/10/30 02:52:44;;;;;;;23.77;17.60;;;15.50;99.90;;;;;;5065253;28;20274;-65
2023/10/30 02:55:11;;;;;;;24.77;17.97;;;15.50;99.90;;;;;;5080112;28;20216;-65
2023/10/30 02:57:38;;;;;;;26.30;19.03;;;15.60;99.90;;;;;;5080977;28;20200;-65
2023/10/30 03:00:07;;;;;;;27.03;18.63;;;15.50;99.90;;;;;;5065946;28;20297;-65
2023/10/30 03:02:34;;;;;;;24.73;18.60;;;15.50;99.90;;;;;;5070085;28;20202;-65
2023/10/30 03:05:01;;;;;;;24.87;18.47;;;15.60;99.90;;;;;;5083622;28;20205;-65
2023/10/30 03:07:28;;;;;;;23.53;17.03;;;15.60;99.90;;;;;;5084643;28;20274;-66
2023/10/30 03:09:55;;;;;;;22.97;17.50;;;15.60;99.90;;;;;;5067114;28;20229;-66
2023/10/30 03:12:22;;;;;;;24.60;16.80;;;15.70;99.90;;;;;;5069313;28;20663;-65
2023/10/30 03:14:49;;;;;;;22.33;17.67;;;15.70;99.90;;;;;;5074663;28;20202;-65
2023/10/30 03:17:16;;;;;;;25.50;17.47;;;15.70;99.90;;;;;;5089144;28;20201;-65
2023/10/30 03:19:44;;;;;;;25.13;16.97;;;15.70;99.90;;;;;;5081855;28;20193;-65
2023/10/30 03:22:11;;;;;;;23.07;17.40;;;15.70;99.90;;;;;;5087422;28;20537;-65
2023/10/30 03:24:38;;;;;;;27.20;17.43;;;15.70;99.90;;;;;;5062434;28;20646;-65
2023/10/30 03:27:05;;;;;;;26.87;18.00;;;15.70;99.90;;;;;;5080784;28;20686;-66
2023/10/30 03:29:35;;;;;;;28.53;18.10;;;15.70;99.90;;;;;;5080008;28;20213;-65
2023/10/30 03:32:02;;;;;;;26.10;17.43;;;15.70;99.90;;;;;;5080067;28;20204;-65
2023/10/30 03:34:29;;;;;;;23.57;18.77;;;15.70;99.90;;;;;;5078073;28;20545;-65
2023/10/30 03:36:57;;;;;;;26.83;18.90;;;15.70;99.90;;;;;;5079669;28;20271;-65
2023/10/30 03:39:24;;;;;;;23.53;17.90;;;15.70;99.90;;;;;;5083657;28;20217;-65
2023/10/30 03:41:51;;;;;;;26.67;17.57;;;15.70;99.90;;;;;;5073731;28;20323;-65
2023/10/30 03:44:19;;;;;;;22.67;16.87;;;15.70;99.90;;;;;;5080255;28;20517;-65
2023/10/30 03:46:46;;;;;;;24.43;17.33;;;15.70;99.90;;;;;;5079803;28;20586;-65
2023/10/30 03:49:13;;;;;;;27.17;17.80;;;15.70;99.90;;;;;;5083095;28;20276;-65
2023/10/30 03:51:41;;;;;;;25.40;17.10;;;15.70;99.90;;;;;;5083492;28;20666;-64
2023/10/30 03:54:08;;;;;;;27.50;18.33;;;15.70;99.90;;;;;;5083968;28;20629;-65
2023/10/30 03:56:35;;;;;;;28.97;16.67;;;15.70;99.90;;;;;;5084195;28;20220;-65
2023/10/30 03:59:02;;;;;;;21.40;17.67;;;15.70;99.90;;;;;;5078968;28;20303;-65
2023/10/30 04:01:29;;;;;;;22.10;15.17;;;15.70;99.90;;;;;;5082682;28;20204;-65
2023/10/30 04:03:56;;;;;;;21.37;16.30;;;15.70;99.90;;;;;;5080811;28;20197;-65
2023/10/30 04:06:24;;;;;;;25.13;16.40;;;15.70;99.90;;;;;;5084904;28;20675;-65
2023/10/30 04:08:50;;;;;;;25.70;15.67;;;15.70;99.90;;;;;;5085863;28;20274;-65
2023/10/30 04:11:18;;;;;;;23.70;15.00;;;15.70;99.90;;;;;;5084658;28;20209;-65
2023/10/30 04:13:45;;;;;;;21.33;15.80;;;15.80;99.90;;;;;;5088373;28;20213;-65
2023/10/30 04:16:16;;;;;;;21.23;15.03;;;15.70;99.90;;;;;;5082126;28;20204;-65
2023/10/30 04:18:43;;;;;;;18.10;14.50;;;15.70;99.90;;;;;;5084608;28;20194;-65
2023/10/30 04:21:10;;;;;;;19.57;14.73;;;15.80;99.90;;;;;;5079957;28;20216;-66
2023/10/30 04:23:38;;;;;;;28.40;15.10;;;15.80;99.90;;;;;;5079466;28;20248;-65
2023/10/30 04:26:05;;;;;;;24.67;15.60;;;15.80;99.90;;;;;;5085559;28;20199;-65
2023/10/30 04:28:32;;;;;;;19.50;15.63;;;15.80;99.90;;;;;;5075780;28;20255;-65
2023/10/30 04:30:59;;;;;;;19.80;15.97;;;15.80;99.90;;;;;;5075270;28;20578;-65
2023/10/30 04:33:26;;;;;;;21.77;16.70;;;15.80;99.90;;;;;;5085928;28;20555;-65
2023/10/30 04:35:54;;;;;;;27.97;17.80;;;15.80;99.90;;;;;;5077595;28;20679;-65
2023/10/30 04:38:24;;;;;;;20.13;16.70;;;15.80;99.90;;;;;;5080023;28;20287;-65
2023/10/30 04:40:51;;;;;;;25.67;16.73;;;15.80;99.90;;;;;;5083530;28;20205;-65
2023/10/30 04:43:18;;;;;;;21.17;16.73;;;15.80;99.90;;;;;;5077293;28;20198;-65
2023/10/30 04:45:45;;;;;;;21.83;18.17;;;15.90;99.90;;;;;;5084582;28;20213;-65
2023/10/30 04:48:12;;;;;;;20.50;16.30;;;15.90;99.90;;;;;;5079539;28;20216;-65
2023/10/30 04:50:39;;;;;;;22.00;16.23;;;15.90;99.90;;;;;;5078743;28;20280;-65
2023/10/30 04:53:06;;;;;;;24.73;17.23;;;15.90;99.90;;;;;;5079023;28;20237;-65
2023/10/30 04:55:34;;;;;;;21.43;17.00;;;15.90;99.90;;;;;;5074040;28;20263;-65
2023/10/30 04:58:01;;;;;;;22.40;17.77;;;15.90;99.90;;;;;;5064011;28;20216;-65
2023/10/30 05:00:28;;;;;;;22.10;17.27;;;15.90;99.90;;;;;;5082042;28;20670;-65
2023/10/30 05:02:55;;;;;;;21.77;17.07;;;15.90;99.90;;;;;;5074081;28;20623;-65
2023/10/30 05:05:23;;;;;;;26.83;18.47;;;15.90;99.90;;;;;;5080575;28;20538;-65
2023/10/30 05:07:49;;;;;;;25.10;17.47;;;15.90;99.90;;;;;;5085138;28;20539;-65
2023/10/30 05:10:16;;;;;;;21.50;17.03;;;15.90;99.90;;;;;;5082146;28;20239;-65
2023/10/30 05:12:43;;;;;;;21.53;16.57;;;15.90;99.90;;;;;;5073539;28;20668;-65
2023/10/30 05:15:10;;;;;;;28.63;17.33;;;16.00;99.90;;;;;;5081734;28;20279;-65
2023/10/30 05:17:38;;;;;;;23.13;17.30;;;16.00;99.90;;;;;;5075130;28;20197;-65
2023/10/30 05:20:06;;;;;;;21.70;16.90;;;16.00;99.90;;;;;;5084203;28;20214;-65
2023/10/30 05:22:33;;;;;;;21.03;16.87;;;16.00;99.90;;;;;;5078158;28;20230;-65
2023/10/30 05:25:05;;;;;;;24.70;18.50;;;16.00;99.90;;;;;;5081284;28;20216;-65
2023/10/30 05:27:32;;;;;;;28.40;17.97;;;16.00;99.90;;;;;;5078823;28;20196;-65
2023/10/30 05:29:59;;;;;;;26.30;17.80;;;16.00;99.90;;;;;;5074899;28;20554;-65
2023/10/30 05:32:27;;;;;;;24.47;18.30;;;16.00;99.90;;;;;;5077564;28;20202;-65
2023/10/30 05:34:54;;;;;;;29.17;19.00;;;16.00;99.90;;;;;;5073718;28;20244;-65
2023/10/30 05:37:21;;;;;;;29.50;19.90;;;16.00;99.90;;;;;;5076401;28;20200;-65
2023/10/30 05:39:49;;;;;;;24.87;18.97;;;16.00;99.90;;;;;;5076348;28;20236;-65
2023/10/30 05:42:17;;;;;;;30.37;19.10;;;16.00;99.90;;;;;;5072474;28;20620;-65
2023/10/30 05:44:45;;;;;;;28.00;19.73;;;16.00;99.90;;;;;;5077436;28;20205;-65
2023/10/30 05:47:13;;;;;;;25.90;18.53;;;16.00;99.90;;;;;;5079238;28;20205;-66
2023/10/30 05:49:40;;;;;;;29.10;19.27;;;16.00;99.90;;;;;;5083274;28;20204;-65
2023/10/30 05:52:09;;;;;;;28.57;19.97;;;16.00;99.90;;;;;;5082117;28;20292;-65
2023/10/30 05:54:37;;;;;;;27.67;19.83;;;16.00;99.90;;;;;;5081985;28;20214;-65
2023/10/30 05:57:05;;;;;;;25.37;19.37;;;16.00;99.90;;;;;;5081183;28;20225;-65
2023/10/30 05:59:32;;;;;;;35.20;20.17;;;16.00;99.90;;;;;;5080261;28;20201;-65
2023/10/30 06:01:59;;;;;;;30.63;19.40;;;16.00;99.90;;;;;;5082452;28;20200;-65
2023/10/30 06:04:27;;;;;;;22.37;19.33;;;16.00;99.90;;;;;;5084001;28;20678;-65
2023/10/30 06:06:54;;;;;;;23.23;18.53;;;16.00;99.90;;;;;;5085281;28;20226;-65
2023/10/30 06:09:21;;;;;;;24.20;17.93;;;15.90;99.90;;;;;;5082706;28;20194;-65
2023/10/30 06:11:48;;;;;;;28.43;18.07;;;15.90;99.90;;;;;;5074708;28;20213;-65
2023/10/30 06:14:17;;;;;;;22.07;18.30;;;15.90;99.90;;;;;;5087067;28;20217;-65
2023/10/30 06:16:44;;;;;;;24.13;19.13;;;15.90;99.90;;;;;;5087483;28;20228;-65
2023/10/30 06:19:11;;;;;;;22.60;18.00;;;15.90;99.90;;;;;;5090008;28;20189;-65
2023/10/30 06:21:43;;;;;;;23.33;16.83;;;15.90;99.90;;;;;;5079677;28;20206;-65
2023/10/30 06:24:10;;;;;;;21.17;16.63;;;15.90;99.90;;;;;;5080653;28;20639;-65
2023/10/30 06:26:40;;;;;;;20.27;16.13;;;15.90;99.90;;;;;;5079306;28;20289;-65
2023/10/30 06:29:08;;;;;;;22.43;16.43;;;15.80;99.90;;;;;;5078634;28;20198;-65
2023/10/30 06:31:35;;;;;;;22.90;16.67;;;15.80;99.90;;;;;;5082629;28;20217;-65
2023/10/30 06:34:02;;;;;;;24.67;16.20;;;15.80;99.90;;;;;;5079893;28;20257;-65
2023/10/30 06:36:30;;;;;;;28.50;15.70;;;15.80;99.90;;;;;;5077866;28;20208;-65
2023/10/30 06:38:57;;;;;;;25.77;15.60;;;15.80;99.90;;;;;;5081167;28;20777;-66
2023/10/30 06:41:24;;;;;;;20.80;15.67;;;15.80;99.90;;;;;;5083687;28;20190;-66
2023/10/30 06:43:51;;;;;;;20.80;15.10;;;15.80;99.90;;;;;;5089079;28;20279;-66
2023/10/30 06:46:18;;;;;;;23.00;15.10;;;15.90;99.90;;;;;;5088359;28;20194;-65
2023/10/30 06:48:46;;;;;;;18.53;15.50;;;15.90;99.90;;;;;;5082203;28;20205;-65
2023/10/30 06:51:13;;;;;;;22.47;15.80;;;15.90;99.90;;;;;;5083497;28;20263;-65
2023/10/30 06:54:03;;;;;;;18.10;14.73;;;15.90;99.90;;;;;;5085245;28;20221;-65
2023/10/30 06:56:31;;;;;;;18.63;13.33;;;15.90;99.90;;;;;;5081137;28;20236;-65
2023/10/30 06:58:57;;;;;;;18.40;13.00;;;15.90;99.90;;;;;;5087365;28;20669;-65
2023/10/30 07:01:25;;;;;;;16.60;12.80;;;15.90;99.90;;;;;;5083690;28;20250;-66
2023/10/30 07:03:52;;;;;;;19.43;13.17;;;15.90;99.90;;;;;;5082384;28;20209;-66
2023/10/30 07:06:19;;;;;;;17.03;12.30;;;15.90;99.90;;;;;;5083769;28;20202;-66
2023/10/30 07:08:46;;;;;;;13.63;12.00;;;15.90;99.90;;;;;;5088912;28;20193;-65
2023/10/30 07:11:13;;;;;;;16.10;12.10;;;15.90;99.90;;;;;;5087988;28;20207;-65
2023/10/30 07:13:40;;;;;;;14.20;11.73;;;15.90;99.90;;;;;;5087331;28;20214;-65
2023/10/30 07:16:07;;;;;;;14.97;12.67;;;15.90;99.90;;;;;;5081105;28;20194;-65
2023/10/30 07:18:34;;;;;;;16.90;11.43;;;16.00;99.90;;;;;;5081984;28;20205;-65
2023/10/30 07:21:01;;;;;;;15.67;12.40;;;16.00;99.90;;;;;;5083481;28;20193;-65
2023/10/30 07:23:28;;;;;;;17.37;12.10;;;16.00;99.90;;;;;;5084014;28;20261;-66
2023/10/30 07:25:55;;;;;;;14.83;11.80;;;16.00;99.90;;;;;;5080153;28;20202;-66
2023/10/30 07:28:22;;;;;;;16.73;11.17;;;16.00;99.90;;;;;;5082511;28;20228;-66
2023/10/30 07:30:49;;;;;;;16.40;12.30;;;16.00;99.90;;;;;;5061262;28;20217;-66
2023/10/30 07:33:16;;;;;;;16.50;11.20;;;16.00;99.90;;;;;;5077965;28;20202;-66
2023/10/30 07:35:44;;;;;;;15.50;10.93;;;16.10;99.90;;;;;;5077008;28;20255;-66
2023/10/30 07:38:11;;;;;;;11.33;10.00;;;16.00;99.90;;;;;;5085711;28;20285;-66
2023/10/30 07:40:38;;;;;;;14.83;11.47;;;16.10;99.90;;;;;;5077690;28;20193;-66
2023/10/30 07:43:05;;;;;;;18.67;11.90;;;16.10;99.90;;;;;;5084144;28;20200;-66
2023/10/30 07:45:38;;;;;;;17.87;10.80;;;16.10;99.90;;;;;;5080736;28;20200;-66
2023/10/30 07:48:06;;;;;;;17.40;11.40;;;16.10;99.90;;;;;;5082446;28;20547;-66
2023/10/30 07:50:36;;;;;;;13.97;12.10;;;16.10;99.90;;;;;;5083389;28;20236;-65
2023/10/30 07:53:03;;;;;;;13.63;11.63;;;16.10;99.90;;;;;;5080872;28;20245;-65
2023/10/30 07:55:30;;;;;;;20.40;11.57;;;16.20;99.90;;;;;;5088661;28;20228;-66
2023/10/30 07:57:57;;;;;;;13.50;11.77;;;16.20;99.90;;;;;;5083082;28;20232;-66
2023/10/30 08:00:24;;;;;;;11.87;10.57;;;16.20;99.90;;;;;;5084353;28;20207;-66
2023/10/30 08:02:53;;;;;;;21.37;13.33;;;16.30;99.90;;;;;;5083374;28;20205;-66
2023/10/30 08:05:22;;;;;;;17.43;11.83;;;16.30;99.90;;;;;;5084732;28;20193;-64
2023/10/30 08:07:50;;;;;;;20.47;12.10;;;16.30;99.90;;;;;;5083536;28;20205;-66
2023/10/30 08:10:17;;;;;;;19.80;11.90;;;16.40;99.90;;;;;;5086687;28;20241;-66
2023/10/30 08:12:44;;;;;;;14.83;12.20;;;16.40;99.90;;;;;;5084117;28;20531;-65
2023/10/30 08:15:12;;;;;;;16.87;12.87;;;16.50;99.90;;;;;;5083437;28;20223;-66
2023/10/30 08:17:39;;;;;;;19.40;13.60;;;16.60;99.90;;;;;;5064548;28;20637;-65
2023/10/30 08:20:06;;;;;;;13.80;12.10;;;16.60;99.90;;;;;;5086914;28;20218;-65
2023/10/30 08:22:33;;;;;;;13.93;12.40;;;16.60;99.90;;;;;;5079207;28;20316;-65
2023/10/30 08:25:00;;;;;;;18.93;13.20;;;16.70;99.90;;;;;;5081900;28;20217;-65
2023/10/30 08:27:27;;;;;;;15.87;12.93;;;16.70;99.90;;;;;;5079128;28;20201;-65
2023/10/30 08:29:55;;;;;;;16.37;12.40;;;16.70;99.90;;;;;;5075588;28;20775;-66
2023/10/30 08:32:22;;;;;;;15.33;12.30;;;16.70;99.90;;;;;;5079010;28;20667;-66
2023/10/30 08:34:49;;;;;;;16.80;12.73;;;16.80;99.90;;;;;;5077528;28;20226;-66
2023/10/30 08:37:16;;;;;;;17.10;11.93;;;16.80;99.90;;;;;;5081118;28;20264;-66
2023/10/30 08:39:43;;;;;;;19.03;12.37;;;16.80;99.90;;;;;;5055883;28;20209;-66
2023/10/30 08:42:15;;;;;;;16.40;13.17;;;16.90;99.90;;;;;;5089470;28;20809;-66
2023/10/30 08:44:42;;;;;;;17.60;12.37;;;16.90;99.90;;;;;;5070152;28;20635;-66
2023/10/30 08:47:09;;;;;;;17.53;12.60;;;16.90;99.90;;;;;;5083053;28;20258;-66
2023/10/30 08:49:36;;;;;;;23.33;12.67;;;16.90;99.90;;;;;;5081782;28;20220;-66
2023/10/30 08:52:04;;;;;;;17.60;13.07;;;17.00;99.90;;;;;;5081216;28;20203;-66
2023/10/30 08:54:31;;;;;;;15.77;13.13;;;17.00;99.90;;;;;;5084461;28;20615;-66
2023/10/30 08:56:58;;;;;;;16.03;13.00;;;17.00;99.90;;;;;;5081587;28;20221;-66
2023/10/30 08:59:42;;;;;;;14.30;12.70;;;17.00;99.90;;;;;;5083610;28;20191;-66
2023/10/30 09:02:09;;;;;;;18.30;11.77;;;16.90;99.90;;;;;;5081230;28;20207;-67
2023/10/30 09:04:37;;;;;;;16.77;13.43;;;17.00;99.90;;;;;;5083996;28;20227;-66
2023/10/30 09:07:04;;;;;;;19.20;12.43;;;17.00;99.90;;;;;;5075147;28;20604;-66
2023/10/30 09:09:32;;;;;;;20.27;13.03;;;17.00;99.90;;;;;;5083395;28;20207;-66
2023/10/30 09:11:59;;;;;;;18.43;13.07;;;17.00;99.90;;;;;;5082949;28;20210;-66
2023/10/30 09:14:26;;;;;;;20.23;13.90;;;17.00;99.90;;;;;;5079015;28;20300;-66
2023/10/30 09:16:54;;;;;;;18.80;12.50;;;17.10;99.90;;;;;;5086806;28;20201;-66
2023/10/30 09:19:21;;;;;;;18.43;13.17;;;17.10;99.90;;;;;;5077463;28;20713;-66
2023/10/30 09:21:47;;;;;;;24.83;12.53;;;17.10;99.90;;;;;;5087268;28;20238;-66
2023/10/30 09:24:15;;;;;;;16.13;12.17;;;17.10;99.90;;;;;;5081553;28;20202;-66
2023/10/30 09:26:42;;;;;;;18.30;11.77;;;17.10;99.90;;;;;;5060147;28;20207;-66
2023/10/30 09:29:10;;;;;;;20.13;11.40;;;17.20;99.90;;;;;;5077756;28;20653;-66
2023/10/30 09:31:37;;;;;;;16.83;10.83;;;17.20;99.90;;;;;;5078632;28;20200;-66
2023/10/30 09:34:04;;;;;;;18.73;10.50;;;17.30;99.90;;;;;;5075418;28;20672;-66
2023/10/30 09:36:31;;;;;;;13.37;9.90;;;17.30;99.90;;;;;;5079989;28;20239;-66
2023/10/30 09:38:58;;;;;;;15.17;9.17;;;17.40;99.90;;;;;;5076492;28;20203;-66
2023/10/30 09:41:27;;;;;;;11.80;9.07;;;17.40;99.90;;;;;;5075160;28;20650;-66
2023/10/30 09:43:56;;;;;;;16.00;9.70;;;17.40;99.90;;;;;;5083035;28;20236;-66
2023/10/30 09:46:28;;;;;;;13.13;9.23;;;17.50;99.90;;;;;;5083808;28;20649;-66
2023/10/30 09:48:59;;;;;;;15.93;9.13;;;17.60;99.90;;;;;;5084842;28;20203;-66
2023/10/30 09:51:27;;;;;;;14.77;8.80;;;17.70;99.90;;;;;;5085379;28;20201;-66
2023/10/30 09:53:57;;;;;;;12.67;8.00;;;17.80;99.90;;;;;;5085386;28;20195;-66
2023/10/30 09:56:26;;;;;;;13.20;9.43;;;17.80;99.90;;;;;;5076940;28;20192;-66
2023/10/30 09:58:53;;;;;;;10.43;7.90;;;17.90;99.90;;;;;;5088279;28;20282;-66
2023/10/30 10:01:21;;;;;;;9.77;7.77;;;17.90;99.90;;;;;;5075152;28;20554;-66
2023/10/30 10:03:48;;;;;;;11.77;7.27;;;18.00;99.90;;;;;;5086653;28;20254;-66
2023/10/30 10:06:16;;;;;;;12.80;8.70;;;18.00;99.90;;;;;;5087794;28;20228;-66
2023/10/30 10:08:43;;;;;;;12.27;7.83;;;18.00;99.90;;;;;;5067261;28;20210;-66
2023/10/30 10:11:10;;;;;;;12.73;7.63;;;18.00;99.90;;;;;;5087158;28;20197;-66
2023/10/30 10:13:40;;;;;;;15.33;8.03;;;18.00;99.90;;;;;;5083511;28;20629;-66
2023/10/30 10:16:29;;;;;;;13.93;7.90;;;18.00;99.90;;;;;;5092919;28;20287;-66
2023/10/30 10:18:56;;;;;;;9.20;7.70;;;18.10;99.90;;;;;;5082253;28;20190;-66
2023/10/30 10:21:23;;;;;;;14.47;8.70;;;18.20;99.90;;;;;;5079668;28;20208;-66
2023/10/30 10:23:50;;;;;;;12.23;8.13;;;18.20;99.90;;;;;;5078455;28;20247;-66
2023/10/30 10:26:17;;;;;;;11.53;8.57;;;18.30;99.90;;;;;;5087514;28;20204;-66
2023/10/30 10:28:48;;;;;;;9.80;8.50;;;18.30;99.90;;;;;;5062394;28;20205;-66
2023/10/30 10:31:17;;;;;;;16.20;8.30;;;18.40;99.90;;;;;;5082814;28;20314;-66
2023/10/30 10:33:48;;;;;;;12.20;8.47;;;18.40;99.90;;;;;;5077148;28;20209;-66
2023/10/30 10:36:15;;;;;;;10.17;8.17;;;18.40;99.90;;;;;;5079853;28;20249;-66
2023/10/30 10:38:57;;;;;;;12.87;8.63;;;18.50;99.90;;;;;;5081168;28;20200;-66
2023/10/30 10:41:28;;;;;;;11.47;8.33;;;18.50;99.90;;;;;;5085325;28;20618;-66
2023/10/30 10:43:56;;;;;;;17.67;7.97;;;18.60;99.90;;;;;;5078661;28;20215;-66
2023/10/30 10:46:23;;;;;;;15.27;7.80;;;18.60;99.90;;;;;;5082434;28;20207;-66
2023/10/30 10:48:51;;;;;;;12.23;8.20;;;18.70;99.90;;;;;;5074821;28;20236;-66
2023/10/30 10:51:33;;;;;;;17.17;8.63;;;18.70;99.90;;;;;;5075644;28;20208;-66
2023/10/30 10:54:06;;;;;;;13.17;8.23;;;18.80;99.90;;;;;;5086490;28;20199;-66
2023/10/30 10:56:36;;;;;;;13.80;8.83;;;18.80;99.90;;;;;;5084287;28;20250;-66
2023/10/30 10:59:11;;;;;;;15.10;8.07;;;18.90;99.90;;;;;;5087343;28;20204;-66
2023/10/30 11:01:42;;;;;;;15.77;8.70;;;18.90;99.90;;;;;;5087186;28;20201;-66
2023/10/30 11:04:12;;;;;;;10.73;8.20;;;18.90;99.90;;;;;;5085370;28;20236;-66
2023/10/30 11:06:46;;;;;;;13.57;8.73;;;18.90;99.90;;;;;;5086036;28;20203;-67
2023/10/30 11:09:35;;;;;;;13.70;10.13;;;18.90;99.90;;;;;;5085142;28;20602;-66
2023/10/30 11:12:05;;;;;;;17.17;10.07;;;18.90;99.90;;;;;;5068308;28;20198;-66
2023/10/30 11:14:38;;;;;;;17.87;10.47;;;18.80;99.90;;;;;;5083414;28;20219;-67
2023/10/30 11:17:05;;;;;;;14.90;11.27;;;18.80;99.90;;;;;;5081792;28;20189;-67
2023/10/30 11:19:33;;;;;;;18.40;11.43;;;18.80;99.90;;;;;;5080940;28;20271;-67
2023/10/30 11:22:00;;;;;;;16.63;10.53;;;18.80;99.90;;;;;;5079146;28;20345;-67
2023/10/30 11:24:41;;;;;;;20.43;11.27;;;18.90;99.90;;;;;;5085494;28;20210;-66
2023/10/30 11:27:27;;;;;;;17.13;10.83;;;18.90;99.90;;;;;;5077998;28;20209;-66
2023/10/30 11:30:06;;;;;;;13.47;9.57;;;18.90;99.90;;;;;;5076764;28;20212;-66
2023/10/30 11:32:51;;;;;;;15.27;12.00;;;18.90;99.90;;;;;;5084083;28;20216;-67
2023/10/30 11:35:22;;;;;;;17.10;12.07;;;19.00;99.90;;;;;;5082740;28;20302;-66
2023/10/30 11:37:55;;;;;;;17.27;11.40;;;19.00;99.90;;;;;;5067132;28;20217;-66
2023/10/30 11:40:24;;;;;;;22.63;12.40;;;19.00;99.90;;;;;;5084609;28;20192;-66
2023/10/30 11:42:56;;;;;;;14.43;10.77;;;19.00;99.90;;;;;;5081531;28;20603;-66
2023/10/30 11:45:25;;;;;;;22.83;11.83;;;19.00;99.90;;;;;;5080916;28;20207;-67
2023/10/30 11:47:59;;;;;;;19.90;10.33;;;19.00;99.90;;;;;;5066049;28;20303;-66
2023/10/30 11:50:34;;;;;;;12.90;9.47;;;19.00;99.90;;;;;;5070099;28;20224;-66
2023/10/30 11:53:09;;;;;;;13.57;8.73;;;19.00;99.90;;;;;;5081992;28;20191;-66
2023/10/30 11:55:40;;;;;;;15.03;9.27;;;19.00;99.90;;;;;;5082917;28;20247;-66
2023/10/30 11:58:11;;;;;;;14.23;9.27;;;19.10;99.90;;;;;;5084345;28;20283;-67
2023/10/30 12:00:46;;;;;;;15.03;9.80;;;19.10;99.90;;;;;;5080561;28;20195;-67
2023/10/30 12:03:14;;;;;;;11.20;8.97;;;19.10;99.90;;;;;;5076477;28;20200;-67
2023/10/30 12:05:41;;;;;;;13.03;9.83;;;19.10;99.90;;;;;;5085969;28;20261;-67
2023/10/30 12:08:09;;;;;;;14.97;8.97;;;19.10;99.90;;;;;;5081110;28;20587;-68
2023/10/30 12:10:37;;;;;;;11.37;9.67;;;19.10;99.90;;;;;;5066689;28;20216;-67
2023/10/30 12:13:05;;;;;;;15.27;9.50;;;19.10;99.90;;;;;;5068657;28;20201;-67
2023/10/30 12:15:32;;;;;;;18.57;9.77;;;19.10;99.90;;;;;;5086419;28;20223;-67
2023/10/30 12:18:00;;;;;;;16.70;9.83;;;19.10;99.90;;;;;;5078272;28;20585;-67
2023/10/30 12:20:27;;;;;;;15.87;9.77;;;19.10;99.90;;;;;;5074775;28;20212;-67
2023/10/30 12:22:55;;;;;;;16.63;9.53;;;19.10;99.90;;;;;;5077711;28;20655;-67
2023/10/30 12:25:22;;;;;;;14.27;9.83;;;19.10;99.90;;;;;;5073699;28;20703;-67
2023/10/30 12:27:49;;;;;;;17.67;10.30;;;19.10;99.90;;;;;;5079116;28;20573;-67
2023/10/30 12:30:17;;;;;;;11.77;8.60;;;19.10;99.90;;;;;;5081628;28;20213;-67
2023/10/30 12:32:54;;;;;;;13.93;9.30;;;19.10;99.90;;;;;;5087280;28;20202;-67